createdAt,value
2019-06-26T04:12:28.261Z,8.23
2019-06-26T04:17:29.940Z,8.13
2019-06-26T04:22:30.800Z,8.07
2019-06-26T04:27:31.668Z,8.60
2019-06-26T04:32:32.547Z,8.67
2019-06-26T04:37:33.445Z,8.37
2019-06-26T04:42:34.440Z,9.07
2019-06-26T04:47:35.345Z,8.97
2019-06-26T04:52:36.192Z,10.50
2019-06-26T04:57:37.065Z,9.43
2019-06-26T05:02:37.947Z,9.53
2019-06-26T05:07:38.954Z,11.13
2019-06-26T05:12:39.892Z,10.63
2019-06-26T05:17:40.809Z,10.83
2019-06-26T05:22:41.739Z,9.90
2019-06-26T05:27:42.610Z,9.87
2019-06-26T05:32:43.600Z,10.97
2019-06-26T05:37:44.505Z,11.60
2019-06-26T05:42:45.478Z,10.70
2019-06-26T05:47:46.568Z,11.23
2019-06-26T05:52:47.427Z,10.60
2019-06-26T05:57:48.673Z,11.07
2019-06-26T06:02:49.818Z,11.43
2019-06-26T06:07:50.708Z,11.43
2019-06-26T06:12:51.607Z,11.17
2019-06-26T06:17:52.616Z,11.60
2019-06-26T06:22:53.518Z,12.03
2019-06-26T06:27:54.390Z,11.73
2019-06-26T06:32:55.368Z,11.00
2019-06-26T06:37:56.252Z,10.87
2019-06-26T06:42:57.119Z,11.83
2019-06-26T06:47:57.996Z,10.23
2019-06-26T06:52:58.868Z,11.20
2019-06-26T06:57:59.838Z,11.03
2019-06-26T07:03:05.763Z,10.63
2019-06-26T07:08:10.121Z,9.90
2019-06-26T07:13:15.613Z,11.83
2019-06-26T07:18:21.895Z,10.17
2019-06-26T07:23:22.761Z,11.53
2019-06-26T07:28:23.631Z,10.93
2019-06-26T07:33:24.603Z,11.10
2019-06-26T07:38:25.728Z,10.50
2019-06-26T07:43:26.588Z,11.07
2019-06-26T07:48:27.461Z,10.67
2019-06-26T07:53:28.342Z,10.70
2019-06-26T07:58:29.219Z,11.03
2019-06-26T08:03:30.197Z,9.90
2019-06-26T08:08:31.069Z,11.10
2019-06-26T08:13:31.970Z,9.63
2019-06-26T08:18:32.978Z,9.80
2019-06-26T08:23:34.101Z,9.20
2019-06-26T08:28:34.968Z,8.90
2019-06-26T08:33:35.941Z,8.93
2019-06-26T08:38:36.824Z,9.27
2019-06-26T08:43:37.699Z,9.90
2019-06-26T08:48:40.555Z,9.30
2019-06-26T08:53:41.463Z,8.90
2019-06-26T08:58:42.424Z,9.13
2019-06-26T09:03:43.296Z,8.90
2019-06-26T09:08:44.290Z,7.97
2019-06-26T09:13:45.261Z,8.87
2019-06-26T09:18:46.238Z,9.53
2019-06-26T09:23:47.162Z,9.47
2019-06-26T09:28:48.030Z,9.17
2019-06-26T09:33:48.904Z,9.47
2019-06-26T09:38:49.858Z,9.17
2019-06-26T09:43:50.782Z,8.50
2019-06-26T09:48:53.467Z,9.30
2019-06-26T09:53:54.407Z,8.47
2019-06-26T09:58:55.269Z,8.27
2019-06-26T10:03:56.175Z,8.50
2019-06-26T10:08:57.069Z,8.47
2019-06-26T10:13:57.950Z,8.43
2019-06-26T10:19:09.701Z,9.00
2019-06-26T10:24:01.640Z,8.30
2019-06-26T10:29:02.911Z,8.17
2019-06-26T10:34:03.888Z,8.33
2019-06-26T10:39:06.481Z,8.10
2019-06-26T10:44:07.354Z,8.30
2019-06-26T10:49:08.235Z,7.63
2019-06-26T10:54:09.109Z,7.17
2019-06-26T10:59:09.980Z,6.67
2019-06-26T11:04:10.863Z,7.60
2019-06-26T11:09:11.733Z,6.93
2019-06-26T11:14:12.612Z,6.80
2019-06-26T11:19:13.496Z,6.87
2019-06-26T11:24:14.480Z,7.53
2019-06-26T11:29:15.344Z,6.20
2019-06-26T11:34:16.233Z,6.53
2019-06-26T11:39:17.206Z,6.90
2019-06-26T11:44:18.206Z,6.43
2019-06-26T11:49:19.073Z,6.77
2019-06-26T11:54:20.055Z,6.03
2019-06-26T11:59:21.756Z,6.97
2019-06-26T12:04:23.770Z,5.60
2019-06-26T12:09:25.156Z,5.73
2019-06-26T12:14:27.044Z,5.13
2019-06-26T12:19:27.910Z,4.40
2019-06-26T12:24:28.775Z,4.27
2019-06-26T12:29:32.853Z,5.07
2019-06-26T12:34:32.721Z,4.67
2019-06-26T12:39:33.745Z,4.50
2019-06-26T12:44:34.604Z,4.40
2019-06-26T12:49:35.496Z,4.57
2019-06-26T12:54:36.430Z,4.33
2019-06-26T12:59:37.392Z,3.83
2019-06-26T13:04:38.292Z,4.57
2019-06-26T13:09:39.276Z,4.53
2019-06-26T13:14:40.866Z,3.53
2019-06-26T13:19:41.731Z,3.60
2019-06-26T13:24:44.118Z,3.63
2019-06-26T13:29:45.430Z,3.80
2019-06-26T13:34:46.593Z,3.63
2019-06-26T13:39:47.568Z,3.53
2019-06-26T13:44:48.433Z,3.07
2019-06-26T13:49:49.308Z,2.67
2019-06-26T13:54:50.191Z,2.77
2019-06-26T13:59:51.074Z,2.00
2019-06-26T14:04:51.952Z,2.13
2019-06-26T14:09:52.893Z,1.82
2019-06-26T14:14:57.639Z,2.08
2019-06-26T14:19:56.672Z,1.98
2019-06-26T14:24:57.908Z,1.70
2019-06-26T14:29:58.781Z,2.33
2019-06-26T14:34:59.652Z,2.20
2019-06-26T14:40:00.547Z,1.92
2019-06-26T14:45:01.429Z,2.00
2019-06-26T14:50:05.509Z,2.30
2019-06-26T14:55:06.804Z,2.25
2019-06-26T15:00:08.586Z,2.67
2019-06-26T15:05:10.163Z,3.10
2019-06-26T15:10:12.432Z,3.30
2019-06-26T15:15:15.708Z,2.70
2019-06-26T15:20:16.991Z,3.02
2019-06-26T15:25:18.176Z,3.10
2019-06-26T15:30:20.855Z,3.00
2019-06-26T15:35:21.731Z,2.73
2019-06-26T15:40:22.632Z,3.05
2019-06-26T15:45:23.509Z,2.58
2019-06-26T15:50:24.389Z,2.50
2019-06-26T15:55:25.411Z,2.72
2019-06-26T16:00:26.942Z,2.33
2019-06-26T16:05:27.780Z,2.40
2019-06-26T16:10:34.615Z,1.85
2019-06-26T16:15:36.931Z,2.00
2019-06-26T16:20:38.176Z,2.08
2019-06-26T16:25:40.145Z,1.70
2019-06-26T16:30:41.011Z,2.47
2019-06-26T16:35:41.872Z,2.30
2019-06-26T16:40:42.761Z,2.33
2019-06-26T16:45:43.738Z,1.87
2019-06-26T16:50:44.615Z,2.23
2019-06-26T16:55:45.491Z,2.00
2019-06-26T17:00:46.377Z,1.90
2019-06-26T17:05:47.248Z,2.57
2019-06-26T17:10:48.120Z,2.57
2019-06-26T17:15:48.998Z,2.63
2019-06-26T17:20:49.984Z,2.20
2019-06-26T17:25:50.867Z,2.77
2019-06-26T17:30:52.950Z,2.80
2019-06-26T17:35:54.429Z,2.70
2019-06-26T17:40:55.325Z,2.57
2019-06-26T17:45:56.183Z,2.90
2019-06-26T17:50:57.065Z,3.00
2019-06-26T17:55:58.033Z,2.90
2019-06-26T18:00:58.939Z,2.90
2019-06-26T18:05:59.796Z,3.20
2019-06-26T18:11:00.677Z,3.23
2019-06-26T18:16:01.547Z,2.93
2019-06-26T18:21:02.641Z,3.10
2019-06-26T18:26:12.917Z,3.20
2019-06-26T18:31:06.554Z,3.07
2019-06-26T18:36:07.428Z,3.20
2019-06-26T18:41:08.324Z,2.90
2019-06-26T18:46:09.301Z,3.47
2019-06-26T18:51:10.173Z,3.77
2019-06-26T18:56:11.047Z,3.13
2019-06-26T19:01:11.918Z,3.30
2019-06-26T19:06:12.791Z,3.63
2019-06-26T19:11:13.763Z,4.43
2019-06-26T19:16:14.640Z,3.60
2019-06-26T19:21:15.529Z,3.90
2019-06-26T19:26:16.382Z,4.00
2019-06-26T19:31:17.290Z,4.00
2019-06-26T19:36:18.141Z,4.27
2019-06-26T19:41:19.030Z,4.30
2019-06-26T19:46:19.905Z,4.47
2019-06-26T19:51:20.776Z,5.00
2019-06-26T19:56:21.653Z,5.33
2019-06-26T20:01:22.546Z,4.67
2019-06-26T20:06:23.486Z,5.13
2019-06-26T20:11:24.360Z,4.80
2019-06-26T20:16:25.253Z,5.00
2019-06-26T20:21:26.115Z,4.70
2019-06-26T20:26:27.091Z,4.67
2019-06-26T20:31:28.085Z,4.90
2019-06-26T20:36:29.051Z,5.13
2019-06-26T20:41:29.933Z,5.03
2019-06-26T20:46:30.913Z,4.97
2019-06-26T20:51:31.789Z,5.23
2019-06-26T20:56:32.673Z,4.90
2019-06-26T21:01:33.640Z,5.30
2019-06-26T21:06:34.743Z,4.87
2019-06-26T21:11:35.699Z,5.10
2019-06-26T21:16:36.731Z,4.90
2019-06-26T21:21:37.693Z,4.87
2019-06-26T21:26:38.659Z,4.57
2019-06-26T21:31:39.599Z,5.50
2019-06-26T21:36:40.476Z,5.60
2019-06-26T21:41:41.346Z,5.23
2019-06-26T21:46:42.219Z,5.33
2019-06-26T21:51:43.094Z,5.33
2019-06-26T21:56:43.971Z,5.17
2019-06-26T22:01:45.252Z,5.90
2019-06-26T22:06:46.222Z,4.93
2019-06-26T22:11:47.219Z,4.73
2019-06-26T22:16:48.089Z,4.73
2019-06-26T22:21:48.962Z,4.70
2019-06-26T22:26:49.814Z,5.33
2019-06-26T22:31:50.685Z,4.90
2019-06-26T22:36:52.379Z,5.40
2019-06-26T22:41:53.430Z,5.67
2019-06-26T22:46:54.316Z,5.40
2019-06-26T22:51:55.205Z,5.20
2019-06-26T22:56:56.207Z,5.37
2019-06-26T23:01:57.219Z,5.53
2019-06-26T23:06:58.121Z,5.43
2019-06-26T23:11:59.680Z,5.60
2019-06-26T23:17:00.647Z,5.50
2019-06-26T23:22:01.527Z,5.53
2019-06-26T23:27:02.405Z,5.20
2019-06-26T23:32:03.567Z,5.47
2019-06-26T23:37:04.777Z,4.73
2019-06-26T23:42:05.679Z,5.37
2019-06-26T23:47:06.590Z,5.23
2019-06-26T23:52:07.490Z,5.37
2019-06-26T23:57:08.468Z,4.67
